Time;durP1;ratioP1;P1;durP2;ratioP2;P2;SDS_P1;SDS_P2;PMS_P1;PMS_P2;Temp;Humidity;BMP_temperature;BMP_pressure;BME280_temperature;BME280_humidity;BME280_pressure;Samples;Min_cycle;Max_cycle;Signal;HPM_P1;HPM_P2
2022/07/15 00:01:17;;;;;;;7.50;7.00;;;;;;;17.22;100.00;98620.53;105246;1268;61339;-73
2022/07/15 00:03:43;;;;;;;9.10;8.30;;;;;;;17.19;100.00;98614.44;105269;1268;61375;-73
2022/07/15 00:06:09;;;;;;;8.80;8.00;;;;;;;17.18;100.00;98628.98;105274;1268;61352;-73
2022/07/15 00:08:35;;;;;;;8.90;8.10;;;;;;;17.18;100.00;98634.26;105312;1271;61281;-73
2022/07/15 00:11:01;;;;;;;8.50;7.70;;;;;;;17.17;100.00;98640.64;105377;1269;61351;-74
2022/07/15 00:13:27;;;;;;;10.40;9.50;;;;;;;17.15;100.00;98650.73;105730;1268;61611;-73
2022/07/15 00:15:53;;;;;;;9.80;8.90;;;;;;;17.13;100.00;98644.39;105830;1268;61476;-72
2022/07/15 00:18:19;;;;;;;9.10;8.20;;;;;;;17.13;100.00;98645.30;105442;1268;61354;-73
2022/07/15 00:20:45;;;;;;;9.70;8.80;;;;;;;17.11;100.00;98650.02;105224;1268;61341;-74
2022/07/15 00:23:11;;;;;;;10.90;9.90;;;;;;;17.09;100.00;98649.96;105226;1271;61377;-75
2022/07/15 00:25:37;;;;;;;10.60;9.20;;;;;;;17.09;100.00;98646.20;105277;1268;61394;-74
2022/07/15 00:28:07;;;;;;;10.00;9.20;;;;;;;17.09;100.00;98637.64;105225;1268;61316;-72
2022/07/15 00:30:36;;;;;;;10.40;9.60;;;;;;;17.08;100.00;98642.80;105249;1269;76137;-73
2022/07/15 00:33:03;;;;;;;10.70;9.70;;;;;;;17.07;100.00;98640.18;105244;1269;69453;-73
2022/07/15 00:35:31;;;;;;;10.60;9.30;;;;;;;17.07;100.00;98631.90;105223;1271;75030;-73
2022/07/15 00:37:58;;;;;;;10.50;9.60;;;;;;;17.09;100.00;98625.39;105247;1271;61268;-73
2022/07/15 00:40:25;;;;;;;11.60;10.10;;;;;;;17.10;100.00;98632.48;105314;1268;61879;-74
2022/07/15 00:42:51;;;;;;;11.10;10.30;;;;;;;17.12;100.00;98637.36;105224;1269;74241;-73
2022/07/15 00:45:20;;;;;;;11.60;10.70;;;;;;;17.13;100.00;98632.90;105289;1268;61297;-73
2022/07/15 00:47:54;;;;;;;12.00;11.00;;;;;;;17.15;100.00;98628.61;105291;1268;73428;-72
2022/07/15 00:50:22;;;;;;;12.20;11.30;;;;;;;17.16;100.00;98624.55;105253;1270;62887;-74
2022/07/15 00:52:55;;;;;;;13.20;12.10;;;;;;;17.17;100.00;98622.46;105255;1269;61246;-74
2022/07/15 00:55:23;;;;;;;13.80;12.50;;;;;;;17.18;100.00;98618.95;105297;1271;74210;-74
2022/07/15 00:57:51;;;;;;;13.10;12.10;;;;;;;17.19;100.00;98612.05;105286;1268;70295;-74
2022/07/15 01:00:17;;;;;;;13.00;12.10;;;;;;;17.17;100.00;98610.83;105184;1271;72379;-74
2022/07/15 01:02:50;;;;;;;14.20;12.80;;;;;;;17.14;100.00;98616.52;105194;1268;61493;-74
2022/07/15 01:05:19;;;;;;;14.20;13.00;;;;;;;17.09;100.00;98620.41;105204;1269;61874;-72
2022/07/15 01:07:46;;;;;;;15.80;14.50;;;;;;;17.05;100.00;98621.15;105295;1271;75248;-72
2022/07/15 01:10:12;;;;;;;15.50;14.10;;;;;;;17.00;100.00;98622.71;105204;1269;69723;-72
2022/07/15 01:12:42;;;;;;;15.20;13.90;;;;;;;16.96;100.00;98625.44;105219;1271;61374;-72
2022/07/15 01:15:09;;;;;;;15.30;14.10;;;;;;;16.94;100.00;98623.55;105174;1271;61278;-73
2022/07/15 01:17:35;;;;;;;15.40;14.00;;;;;;;16.89;100.00;98622.87;105185;1271;61298;-73
2022/07/15 01:20:02;;;;;;;15.90;14.50;;;;;;;16.87;100.00;98625.49;105191;1270;61416;-73
2022/07/15 01:22:28;;;;;;;19.60;17.90;;;;;;;16.83;100.00;98632.66;105284;1268;61257;-73
2022/07/15 01:24:55;;;;;;;22.70;20.90;;;;;;;16.80;100.00;98627.77;104979;1272;61461;-74
2022/07/15 01:27:20;;;;;;;23.00;20.90;;;;;;;16.79;100.00;98630.25;105199;1271;61349;-73
2022/07/15 01:29:46;;;;;;;21.10;19.40;;;;;;;16.76;100.00;98627.97;105225;1268;63029;-73
2022/07/15 01:32:13;;;;;;;22.30;20.20;;;;;;;16.73;100.00;98625.35;104950;1271;61415;-73
2022/07/15 01:34:38;;;;;;;21.20;19.40;;;;;;;16.72;100.00;98623.69;105210;1269;61383;-73
2022/07/15 01:37:04;;;;;;;18.60;17.20;;;;;;;16.71;100.00;98624.82;105167;1270;62034;-73
2022/07/15 01:39:31;;;;;;;18.90;17.40;;;;;;;16.69;100.00;98622.54;105273;1271;61333;-73
2022/07/15 01:41:56;;;;;;;17.40;15.90;;;;;;;16.67;100.00;98627.17;105201;1270;76504;-73
2022/07/15 01:44:22;;;;;;;17.40;15.70;;;;;;;16.66;100.00;98623.91;105102;1271;61387;-73
2022/07/15 01:46:49;;;;;;;16.20;15.00;;;;;;;16.64;100.00;98624.80;105007;1271;61468;-73
2022/07/15 01:49:29;;;;;;;15.90;14.40;;;;;;;16.63;100.00;98633.67;105220;1268;61274;-73
2022/07/15 01:51:56;;;;;;;15.60;14.40;;;;;;;16.61;100.00;98633.86;105159;1271;61300;-73
2022/07/15 01:54:25;;;;;;;13.80;12.60;;;;;;;16.61;100.00;98635.49;104943;1271;77105;-73
2022/07/15 01:56:52;;;;;;;15.20;13.80;;;;;;;16.60;100.00;98637.17;105208;1268;70353;-72
2022/07/15 01:59:22;;;;;;;14.50;13.20;;;;;;;16.59;100.00;98639.29;105169;1271;73281;-73
2022/07/15 02:01:49;;;;;;;14.70;13.50;;;;;;;16.58;100.00;98642.63;105273;1268;61144;-74
2022/07/15 02:04:15;;;;;;;14.50;13.00;;;;;;;16.55;100.00;98646.48;105242;1269;61584;-74
2022/07/15 02:06:41;;;;;;;14.70;13.30;;;;;;;16.54;100.00;98647.68;105303;1268;75319;-73
2022/07/15 02:09:08;;;;;;;16.50;15.10;;;;;;;16.52;100.00;98648.23;105323;1271;61153;-73
2022/07/15 02:11:35;;;;;;;18.10;16.70;;;;;;;16.49;100.00;98650.48;105149;1271;61386;-73
2022/07/15 02:14:01;;;;;;;21.10;19.30;;;;;;;16.47;100.00;98650.86;105032;1271;61452;-74
2022/07/15 02:16:33;;;;;;;21.30;19.50;;;;;;;16.45;100.00;98652.30;105350;1268;61828;-72
2022/07/15 02:19:00;;;;;;;20.30;18.40;;;;;;;16.41;100.00;98651.42;105268;1271;75178;-73
2022/07/15 02:21:26;;;;;;;21.70;19.70;;;;;;;16.39;100.00;98656.34;105008;1271;68939;-73
2022/07/15 02:23:54;;;;;;;21.50;19.80;;;;;;;16.37;100.00;98664.04;105221;1268;61323;-73
2022/07/15 02:26:20;;;;;;;20.80;18.80;;;;;;;16.35;100.00;98665.30;105190;1268;61265;-73
2022/07/15 02:28:46;;;;;;;21.10;19.30;;;;;;;16.33;100.00;98668.90;105215;1271;61400;-73
2022/07/15 02:31:13;;;;;;;20.40;18.40;;;;;;;16.30;100.00;98674.54;105270;1270;61288;-73
2022/07/15 02:33:40;;;;;;;20.20;18.10;;;;;;;16.29;100.00;98675.02;105195;1268;61278;-72
2022/07/15 02:36:06;;;;;;;19.50;17.90;;;;;;;16.26;100.00;98677.07;105167;1269;61278;-73
2022/07/15 02:38:32;;;;;;;20.80;19.00;;;;;;;16.26;100.00;98679.28;105118;1271;61462;-73
2022/07/15 02:40:58;;;;;;;21.00;19.10;;;;;;;16.26;100.00;98680.30;105218;1269;61408;-73
2022/07/15 02:43:24;;;;;;;21.30;19.60;;;;;;;16.28;100.00;98683.21;105170;1271;61378;-73
2022/07/15 02:45:50;;;;;;;22.00;19.90;;;;;;;16.29;100.00;98686.89;105227;1268;62074;-74
2022/07/15 02:48:16;;;;;;;22.30;20.30;;;;;;;16.29;100.00;98686.71;105188;1268;61380;-72
2022/07/15 02:50:42;;;;;;;23.30;21.20;;;;;;;16.30;100.00;98690.52;105172;1271;61288;-72
2022/07/15 02:53:09;;;;;;;22.90;20.80;;;;;;;16.32;100.00;98693.04;105182;1268;61261;-74
2022/07/15 02:55:35;;;;;;;25.40;23.00;;;;;;;16.34;100.00;98697.48;105206;1271;61275;-75
2022/07/15 02:58:02;;;;;;;27.90;25.30;;;;;;;16.36;100.00;98692.27;105186;1270;61433;-73
2022/07/15 03:00:28;;;;;;;27.10;24.40;;;;;;;16.39;100.00;98698.06;105197;1271;61372;-73
2022/07/15 03:02:54;;;;;;;26.80;24.40;;;;;;;16.42;100.00;98702.79;105171;1271;61281;-74
2022/07/15 03:05:20;;;;;;;25.40;23.10;;;;;;;16.44;100.00;98709.36;105193;1271;61499;-73
2022/07/15 03:07:46;;;;;;;28.20;25.50;;;;;;;16.44;100.00;98709.73;105116;1269;61946;-73
2022/07/15 03:10:13;;;;;;;26.20;23.70;;;;;;;16.46;100.00;98712.62;104957;1271;61377;-73
2022/07/15 03:12:39;;;;;;;27.60;25.20;;;;;;;16.48;100.00;98713.52;105189;1271;61156;-72
2022/07/15 03:15:07;;;;;;;28.60;26.10;;;;;;;16.51;100.00;98713.83;104927;1271;61308;-72
2022/07/15 03:17:33;;;;;;;26.10;23.80;;;;;;;16.54;100.00;98716.42;105059;1271;61360;-73
2022/07/15 03:19:59;;;;;;;27.30;25.00;;;;;;;16.55;100.00;98719.66;105217;1271;61281;-73
2022/07/15 03:22:27;;;;;;;26.80;24.40;;;;;;;16.56;100.00;98724.80;105206;1269;61295;-72
2022/07/15 03:24:53;;;;;;;25.60;23.40;;;;;;;16.57;100.00;98726.46;105265;1271;61273;-73
2022/07/15 03:27:19;;;;;;;30.70;27.70;;;;;;;16.60;100.00;98734.09;105188;1269;61377;-73
2022/07/15 03:29:46;;;;;;;29.30;26.50;;;;;;;16.61;100.00;98737.91;105203;1269;61303;-73
2022/07/15 03:32:15;;;;;;;29.30;26.40;;;;;;;16.62;100.00;98740.04;105197;1271;61736;-73
2022/07/15 03:34:43;;;;;;;28.70;26.10;;;;;;;16.62;100.00;98746.23;105200;1269;73377;-73
2022/07/15 03:37:09;;;;;;;29.30;26.60;;;;;;;16.63;100.00;98747.98;105258;1268;61159;-73
2022/07/15 03:39:35;;;;;;;30.10;27.50;;;;;;;16.64;100.00;98754.52;105249;1268;61375;-73
2022/07/15 03:42:01;;;;;;;29.50;27.00;;;;;;;16.66;100.00;98759.66;105213;1268;61336;-73
2022/07/15 03:44:28;;;;;;;31.70;28.70;;;;;;;16.67;100.00;98764.77;105229;1269;61361;-73
2022/07/15 03:46:54;;;;;;;28.80;26.30;;;;;;;16.68;100.00;98768.67;105160;1271;61268;-73
2022/07/15 03:49:19;;;;;;;28.70;26.30;;;;;;;16.69;100.00;98764.79;105185;1269;61426;-73
2022/07/15 03:51:46;;;;;;;30.70;27.90;;;;;;;16.71;100.00;98768.77;104938;1271;61291;-73
2022/07/15 03:54:12;;;;;;;28.00;25.20;;;;;;;16.74;100.00;98772.92;105179;1270;61311;-74
2022/07/15 03:56:38;;;;;;;28.50;26.00;;;;;;;16.79;100.00;98776.83;105226;1271;61383;-74
2022/07/15 03:59:04;;;;;;;27.60;25.30;;;;;;;16.81;100.00;98787.17;105211;1271;61441;-74
2022/07/15 04:01:30;;;;;;;26.30;24.00;;;;;;;16.84;100.00;98789.05;105268;1268;61377;-74
2022/07/15 04:03:56;;;;;;;23.90;21.90;;;;;;;16.89;100.00;98791.29;105193;1268;75388;-74
2022/07/15 04:06:24;;;;;;;23.60;21.50;;;;;;;16.93;100.00;98798.92;105222;1271;61268;-73
2022/07/15 04:08:51;;;;;;;24.60;22.50;;;;;;;16.92;100.00;98807.15;105245;1268;74272;-74
2022/07/15 04:11:17;;;;;;;24.70;22.40;;;;;;;16.97;100.00;98813.10;105213;1271;61381;-73
2022/07/15 04:13:44;;;;;;;26.30;23.70;;;;;;;16.92;100.00;98811.46;105245;1271;61179;-73
2022/07/15 04:16:11;;;;;;;23.10;21.00;;;;;;;16.88;100.00;98811.23;105246;1268;61313;-73
2022/07/15 04:18:38;;;;;;;21.40;19.60;;;;;;;16.87;100.00;98822.84;105214;1269;70412;-72
2022/07/15 04:21:04;;;;;;;21.80;19.90;;;;;;;16.84;100.00;98824.05;105235;1269;61484;-73
2022/07/15 04:23:30;;;;;;;20.90;18.90;;;;;;;16.80;100.00;98820.27;105214;1271;61361;-73
2022/07/15 04:25:56;;;;;;;20.70;18.80;;;;;;;16.82;100.00;98836.25;105238;1269;61311;-73
2022/07/15 04:28:23;;;;;;;20.00;18.10;;;;;;;16.87;100.00;98834.30;105183;1268;61287;-73
2022/07/15 04:30:53;;;;;;;18.80;16.90;;;;;;;16.91;100.00;98838.61;105001;1271;61396;-72
2022/07/15 04:33:19;;;;;;;17.40;15.70;;;;;;;16.91;100.00;98843.11;105231;1271;73362;-73
2022/07/15 04:35:45;;;;;;;17.00;15.40;;;;;;;17.10;100.00;98852.08;105000;1268;61464;-73
2022/07/15 04:38:12;;;;;;;15.90;14.20;;;;;;;17.13;100.00;98855.16;105198;1268;61338;-73
2022/07/15 04:40:39;;;;;;;14.50;13.30;;;;;;;17.31;100.00;98857.89;105160;1271;62749;-72
2022/07/15 04:43:07;;;;;;;14.20;12.80;;;;;;;17.75;100.00;98866.39;105254;1271;69266;-73
2022/07/15 04:45:33;;;;;;;15.90;12.00;;;;;;;18.43;100.00;98869.83;105230;1268;71361;-73
2022/07/15 04:47:59;;;;;;;11.40;10.20;;;;;;;19.04;100.00;98872.63;105266;1271;62944;-74
2022/07/15 04:53:10;;;;;;;10.20;9.20;;;;;;;20.84;100.00;98876.34;105691;1268;73474;-73
2022/07/15 04:55:36;;;;;;;9.40;8.60;;;;;;;21.37;100.00;98871.16;105501;1268;61387;-73
2022/07/15 04:58:02;;;;;;;9.70;8.40;;;;;;;21.71;100.00;98875.57;105209;1268;61278;-73
2022/07/15 05:00:28;;;;;;;9.40;7.30;;;;;;;22.11;100.00;98877.05;105258;1271;61459;-73
2022/07/15 05:02:55;;;;;;;9.00;7.00;;;;;;;22.71;100.00;98878.80;105238;1268;61390;-73
2022/07/15 05:05:21;;;;;;;7.50;6.70;;;;;;;23.27;100.00;98876.73;105243;1271;62094;-74
2022/07/15 05:07:47;;;;;;;7.20;5.90;;;;;;;23.68;100.00;98882.17;105217;1270;61303;-74
2022/07/15 05:10:13;;;;;;;7.20;6.50;;;;;;;23.88;100.00;98887.58;105233;1270;61381;-74
2022/07/15 05:12:39;;;;;;;6.70;6.10;;;;;;;23.99;100.00;98891.73;104955;1274;61239;-73
2022/07/15 05:15:06;;;;;;;7.30;5.50;;;;;;;24.16;100.00;98894.81;105192;1271;61351;-73
2022/07/15 05:17:35;;;;;;;6.40;5.30;;;;;;;24.32;100.00;98901.11;105261;1271;61374;-73
2022/07/15 05:20:02;;;;;;;5.70;5.00;;;;;;;24.65;100.00;98903.82;105185;1271;61378;-73
2022/07/15 05:22:27;;;;;;;7.70;5.30;;;;;;;24.87;100.00;98901.23;105197;1271;61275;-73
2022/07/15 05:24:53;;;;;;;6.90;4.70;;;;;;;25.06;100.00;98901.10;105186;1271;61401;-73
2022/07/15 05:27:21;;;;;;;6.60;5.10;;;;;;;25.31;100.00;98902.23;105212;1271;61300;-73
2022/07/15 05:29:47;;;;;;;5.50;4.90;;;;;;;25.47;100.00;98898.21;105223;1270;61371;-73
2022/07/15 05:32:13;;;;;;;5.00;4.00;;;;;;;25.49;100.00;98904.48;105219;1271;61281;-73
2022/07/15 05:34:38;;;;;;;6.00;4.00;;;;;;;25.64;100.00;98902.46;105201;1270;61412;-73
2022/07/15 05:37:04;;;;;;;6.70;3.90;;;;;;;25.54;100.00;98905.98;105210;1271;61406;-72
2022/07/15 05:39:30;;;;;;;5.30;4.10;;;;;;;25.45;100.00;98914.15;105194;1271;61268;-73
2022/07/15 05:41:58;;;;;;;6.40;3.50;;;;;;;25.54;100.00;98915.77;105260;1271;61272;-73
2022/07/15 05:44:24;;;;;;;8.20;4.40;;;;;;;25.71;100.00;98917.45;105523;1271;74390;-73
2022/07/15 05:46:51;;;;;;;10.60;4.20;;;;;;;25.87;100.00;98921.13;105450;1271;61399;-73
2022/07/15 05:49:17;;;;;;;11.70;4.50;;;;;;;26.00;100.00;98925.55;105216;1271;61363;-74
2022/07/15 05:51:44;;;;;;;4.90;3.80;;;;;;;26.16;100.00;98924.60;105198;1271;61360;-73
2022/07/15 05:54:13;;;;;;;5.40;3.80;;;;;;;26.00;100.00;98922.48;105255;1271;70449;-73
2022/07/15 05:56:39;;;;;;;6.30;4.20;;;;;;;26.13;100.00;98927.15;105210;1271;72731;-73
2022/07/15 05:59:05;;;;;;;5.80;3.50;;;;;;;26.27;100.00;98934.27;105217;1271;61189;-74
2022/07/15 06:01:31;;;;;;;7.00;3.30;;;;;;;26.39;100.00;98949.42;105233;1271;61395;-74
2022/07/15 06:03:57;;;;;;;7.90;3.90;;;;;;;26.39;100.00;98954.42;105211;1271;61374;-74
2022/07/15 06:06:23;;;;;;;4.90;3.40;;;;;;;26.16;100.00;98958.34;105229;1271;61338;-73
2022/07/15 06:08:49;;;;;;;4.20;3.00;;;;;;;25.89;100.00;98963.56;105205;1269;61275;-75
2022/07/15 06:11:15;;;;;;;8.20;4.10;;;;;;;25.90;100.00;98968.14;104960;1272;61463;-73
2022/07/15 06:13:41;;;;;;;5.20;4.00;;;;;;;25.94;100.00;98972.15;105259;1271;61349;-74
2022/07/15 06:16:07;;;;;;;8.30;4.10;;;;;;;25.67;100.00;98976.48;105179;1271;61403;-74
2022/07/15 06:18:33;;;;;;;5.10;3.80;;;;;;;24.86;100.00;98982.92;105267;1271;74260;-73
2022/07/15 06:20:59;;;;;;;8.90;4.20;;;;;;;24.56;100.00;98986.00;105233;1271;61355;-73
2022/07/15 06:23:26;;;;;;;5.80;3.30;;;;;;;24.13;100.00;98983.48;105182;1271;61374;-73
2022/07/15 06:25:51;;;;;;;6.30;3.40;;;;;;;24.50;100.00;98992.73;105238;1271;61291;-74
2022/07/15 06:28:17;;;;;;;4.60;3.20;;;;;;;24.69;100.00;98992.74;105216;1271;61414;-73
2022/07/15 06:30:43;;;;;;;7.30;4.10;;;;;;;24.70;100.00;98991.83;105228;1271;61513;-75
2022/07/15 06:33:09;;;;;;;7.20;4.00;;;;;;;24.56;100.00;99002.13;105208;1271;61305;-74
2022/07/15 06:35:36;;;;;;;5.20;4.20;;;;;;;24.46;100.00;99000.12;105264;1271;61382;-76
2022/07/15 06:38:02;;;;;;;4.40;2.90;;;;;;;24.36;100.00;98999.18;104912;1271;68675;-74
2022/07/15 06:40:27;;;;;;;5.80;2.70;;;;;;;24.17;100.00;98998.52;105210;1271;61314;-74
2022/07/15 06:42:54;;;;;;;4.60;3.00;;;;;;;24.23;100.00;99001.48;105201;1271;61393;-73
2022/07/15 06:45:20;;;;;;;6.70;3.10;;;;;;;24.18;100.00;98999.98;105235;1270;61313;-74
2022/07/15 06:47:46;;;;;;;5.00;2.80;;;;;;;23.96;100.00;99004.87;105198;1271;61271;-74
2022/07/15 06:50:14;;;;;;;6.20;2.70;;;;;;;23.98;100.00;99014.23;105210;1271;61580;-75
2022/07/15 06:52:40;;;;;;;5.10;2.30;;;;;;;23.89;100.00;99013.27;104950;1271;61319;-76
2022/07/15 06:55:06;;;;;;;7.20;3.00;;;;;;;23.96;100.00;99017.42;105208;1271;61282;-75
2022/07/15 06:57:32;;;;;;;2.90;2.40;;;;;;;24.18;100.00;99016.71;105214;1271;61151;-74
2022/07/15 07:00:02;;;;;;;3.70;2.40;;;;;;;24.28;100.00;99020.54;105015;1271;61368;-75
2022/07/15 07:02:28;;;;;;;5.30;2.50;;;;;;;24.41;100.00;99018.05;105226;1271;69347;-74
2022/07/15 07:04:54;;;;;;;4.50;2.60;;;;;;;24.49;100.00;99021.91;105205;1271;61344;-72
2022/07/15 07:07:20;;;;;;;3.60;2.10;;;;;;;24.44;100.00;99026.35;105176;1271;61377;-76
2022/07/15 07:09:46;;;;;;;4.00;2.20;;;;;;;24.27;100.00;99026.08;105207;1271;61374;-73
2022/07/15 07:12:12;;;;;;;5.60;2.10;;;;;;;23.90;100.00;99026.50;105216;1270;61303;-73
2022/07/15 07:14:38;;;;;;;4.30;2.00;;;;;;;23.87;100.00;99026.40;105225;1271;61303;-73
2022/07/15 07:17:04;;;;;;;3.30;2.10;;;;;;;23.86;100.00;99026.88;105202;1271;61293;-73
2022/07/15 07:19:30;;;;;;;6.10;2.30;;;;;;;23.79;100.00;99027.02;105207;1270;61375;-75
2022/07/15 07:21:57;;;;;;;2.80;1.80;;;;;;;23.88;100.00;99030.69;105209;1269;61303;-73
2022/07/15 07:24:22;;;;;;;4.30;1.80;;;;;;;23.82;100.00;99032.89;105277;1271;61293;-73
2022/07/15 07:26:49;;;;;;;4.60;2.40;;;;;;;23.72;100.00;99037.02;105190;1271;73823;-71
2022/07/15 07:29:22;;;;;;;3.50;2.40;;;;;;;23.74;100.00;99037.66;105231;1271;61334;-72
2022/07/15 07:31:51;;;;;;;3.70;2.50;;;;;;;23.33;100.00;99038.38;105235;1270;61791;-73
2022/07/15 07:34:17;;;;;;;;;;;;;;;23.18;100.00;99044.02;105273;1271;74992;-73
2022/07/15 07:36:45;;;;;;;6.20;2.80;;;;;;;23.06;100.00;99048.85;105315;1269;61255;-73
2022/07/15 07:39:12;;;;;;;6.50;2.70;;;;;;;23.01;100.00;99047.40;104943;1271;74176;-73
2022/07/15 07:41:40;;;;;;;5.60;3.00;;;;;;;22.96;100.00;99054.55;105007;1272;61278;-74
2022/07/15 07:44:06;;;;;;;6.30;3.00;;;;;;;22.89;100.00;99054.78;105214;1271;61226;-73
2022/07/15 07:46:33;;;;;;;6.00;3.40;;;;;;;22.68;100.00;99058.70;105229;1271;61491;-73
2022/07/15 07:48:59;;;;;;;7.00;3.20;;;;;;;22.45;100.00;99063.61;105242;1271;70234;-73
2022/07/15 07:51:25;;;;;;;5.40;2.80;;;;;;;22.26;100.00;99068.60;105225;1271;61298;-72
2022/07/15 07:53:51;;;;;;;3.80;3.00;;;;;;;22.06;100.00;99067.77;105322;1271;61379;-73
2022/07/15 07:56:17;;;;;;;5.70;3.50;;;;;;;21.85;100.00;99073.39;104954;1272;61512;-72
2022/07/15 07:58:43;;;;;;;5.70;3.10;;;;;;;21.95;100.00;99072.69;105226;1271;61288;-74
2022/07/15 08:01:09;;;;;;;3.70;2.50;;;;;;;21.96;100.00;99080.89;105226;1271;61233;-74
2022/07/15 08:03:36;;;;;;;6.40;3.50;;;;;;;21.88;100.00;99076.95;105232;1271;61310;-72
2022/07/15 08:06:02;;;;;;;4.50;2.50;;;;;;;21.92;100.00;99081.20;105224;1271;61345;-72
2022/07/15 08:08:28;;;;;;;4.60;2.70;;;;;;;21.87;100.00;99083.19;105203;1271;61304;-72
2022/07/15 08:10:56;;;;;;;6.10;3.00;;;;;;;21.73;100.00;99082.64;105243;1271;61344;-73
2022/07/15 08:13:25;;;;;;;3.50;2.50;;;;;;;21.73;100.00;99087.13;105207;1269;73637;-74
2022/07/15 08:15:53;;;;;;;7.30;2.60;;;;;;;21.77;100.00;99089.75;105259;1269;61250;-73
2022/07/15 08:18:20;;;;;;;4.60;2.30;;;;;;;21.60;100.00;99093.90;105267;1269;61256;-73
2022/07/15 08:20:46;;;;;;;6.10;1.70;;;;;;;21.51;100.00;99093.74;105227;1271;61268;-73
2022/07/15 08:23:14;;;;;;;3.10;2.00;;;;;;;21.33;100.00;99098.27;105248;1270;61307;-72
2022/07/15 08:25:40;;;;;;;4.70;2.00;;;;;;;21.21;100.00;99101.48;105261;1271;73258;-72
2022/07/15 08:28:07;;;;;;;4.60;2.00;;;;;;;21.12;100.00;99100.52;105187;1271;61377;-73
2022/07/15 08:30:33;;;;;;;3.60;1.60;;;;;;;21.21;100.00;99097.54;104932;1274;61291;-72
2022/07/15 08:33:00;;;;;;;3.20;1.60;;;;;;;21.38;100.00;99094.59;105204;1271;61231;-73
2022/07/15 08:35:27;;;;;;;2.10;1.20;;;;;;;21.61;100.00;99099.97;105335;1269;61280;-73
2022/07/15 08:37:53;;;;;;;2.50;1.20;;;;;;;21.80;100.00;99106.71;104997;1274;74260;-73
2022/07/15 08:40:20;;;;;;;4.10;1.30;;;;;;;21.92;99.84;99104.14;105247;1268;61364;-72
2022/07/15 08:42:47;;;;;;;3.60;1.50;;;;;;;22.02;97.30;99103.23;105279;1271;61781;-74
2022/07/15 08:45:15;;;;;;;4.50;1.40;;;;;;;21.77;97.66;99106.84;105286;1269;75433;-72
2022/07/15 08:47:44;;;;;;;3.70;1.20;;;;;;;21.67;97.88;99109.80;105210;1271;69419;-73
2022/07/15 08:50:15;;;;;;;2.70;1.40;;;;;;;21.92;96.52;99111.02;105168;1270;75172;-73
2022/07/15 08:52:43;;;;;;;2.50;1.20;;;;;;;21.94;95.00;99116.17;105266;1268;61357;-73
2022/07/15 08:55:10;;;;;;;2.40;1.00;;;;;;;21.89;96.39;99117.67;105335;1272;61261;-73
2022/07/15 08:57:36;;;;;;;2.80;1.20;;;;;;;22.18;96.86;99111.73;105225;1271;61389;-72
2022/07/15 09:00:09;;;;;;;2.70;0.90;;;;;;;22.53;95.52;99107.33;105272;1268;61258;-73
2022/07/15 09:02:37;;;;;;;4.90;1.30;;;;;;;22.51;93.10;99113.38;105259;1272;74026;-73
2022/07/15 09:05:22;;;;;;;1.30;0.80;;;;;;;22.13;91.59;99122.21;105218;1271;61195;-73
2022/07/15 09:07:52;;;;;;;2.90;1.30;;;;;;;21.76;92.49;99122.88;105258;1269;61377;-73
2022/07/15 09:10:19;;;;;;;1.80;1.00;;;;;;;21.86;93.94;99122.36;105315;1269;75339;-73
2022/07/15 09:12:52;;;;;;;1.80;0.90;;;;;;;22.35;94.50;99114.15;105372;1271;70417;-73
2022/07/15 09:15:39;;;;;;;4.60;1.30;;;;;;;22.86;94.11;99103.33;105062;1271;75005;-72
2022/07/15 09:18:11;;;;;;;2.50;1.10;;;;;;;23.07;90.57;99113.80;105327;1270;61363;-74
2022/07/15 09:20:39;;;;;;;2.70;0.90;;;;;;;22.80;87.56;99110.80;105191;1272;62738;-73
2022/07/15 09:23:06;;;;;;;2.00;1.00;;;;;;;22.61;88.57;99116.46;105407;1271;75409;-73
2022/07/15 09:25:33;;;;;;;3.20;0.90;;;;;;;22.59;88.49;99122.38;105240;1271;69205;-73
2022/07/15 09:28:07;;;;;;;1.60;1.10;;;;;;;22.55;87.40;99121.95;105174;1269;73237;-73
2022/07/15 09:33:38;;;;;;;2.50;1.10;;;;;;;22.11;86.31;99120.48;105248;1271;61354;-74
2022/07/15 09:36:04;;;;;;;3.70;1.40;;;;;;;22.11;88.39;99119.03;105270;1271;74822;-74
2022/07/15 09:38:40;;;;;;;1.70;0.90;;;;;;;22.51;87.94;99112.91;106121;1270;61245;-74
2022/07/15 09:41:33;;;;;;;2.20;0.90;;;;;;;22.57;84.34;99113.77;106447;1271;73392;-74
2022/07/15 09:44:21;;;;;;;1.50;1.00;;;;;;;22.34;83.71;99113.69;106534;1277;61355;-74
2022/07/15 09:46:49;;;;;;;1.30;0.70;;;;;;;22.35;83.09;99110.33;104442;1275;61391;-73
2022/07/15 09:49:24;;;;;;;4.00;1.70;;;;;;;22.48;81.48;99106.34;104887;1277;75442;-74
2022/07/15 09:51:54;;;;;;;2.10;0.90;;;;;;;22.61;78.92;99106.95;104933;1278;68252;-74
2022/07/15 09:54:25;;;;;;;1.60;1.00;;;;;;;22.68;74.24;99101.98;104629;1278;72644;-73
2022/07/15 09:56:52;;;;;;;3.00;1.20;;;;;;;22.64;73.46;99105.17;104796;1276;61297;-72
2022/07/15 09:59:19;;;;;;;1.50;1.00;;;;;;;22.53;73.04;99108.99;104852;1277;61286;-74
2022/07/15 10:01:47;;;;;;;2.20;1.00;;;;;;;22.64;72.31;99101.73;104785;1277;76301;-73
2022/07/15 10:04:18;;;;;;;3.20;1.20;;;;;;;23.04;72.32;99093.98;104929;1277;70131;-73
2022/07/15 10:06:47;;;;;;;3.60;1.00;;;;;;;23.39;71.46;99093.39;104780;1276;72345;-73
2022/07/15 10:09:14;;;;;;;2.30;1.00;;;;;;;23.54;69.87;99097.73;104794;1277;61329;-73
2022/07/15 10:11:49;;;;;;;2.70;1.00;;;;;;;23.38;66.31;99099.96;104789;1277;61451;-73
2022/07/15 10:14:55;;;;;;;3.50;1.00;;;;;;;23.16;64.33;99105.84;104932;1277;75547;-74
2022/07/15 10:17:47;;;;;;;1.90;1.10;;;;;;;22.73;64.24;99099.55;104808;1278;70346;-74
2022/07/15 10:20:32;;;;;;;2.20;1.00;;;;;;;22.48;62.83;99102.11;104459;1278;72364;-74
2022/07/15 10:23:24;;;;;;;2.90;1.20;;;;;;;22.27;61.82;99102.58;104989;1271;61275;-74
2022/07/15 10:26:07;;;;;;;1.50;1.00;;;;;;;22.35;60.58;99094.38;105266;1271;61896;-74
2022/07/15 10:28:54;;;;;;;2.20;1.20;;;;;;;22.43;61.05;99098.71;105184;1270;76627;-74
2022/07/15 10:31:26;;;;;;;2.00;1.10;;;;;;;22.68;61.75;99095.81;105218;1269;70256;-72
2022/07/15 10:34:14;;;;;;;4.00;1.40;;;;;;;22.72;61.39;99099.77;105338;1271;74588;-73
2022/07/15 10:36:46;;;;;;;2.70;1.00;;;;;;;23.04;63.17;99093.25;104841;1274;61433;-72
2022/07/15 10:39:17;;;;;;;1.30;1.00;;;;;;;23.47;62.02;99088.70;104901;1274;61224;-73
2022/07/15 10:42:04;;;;;;;2.90;1.30;;;;;;;23.35;59.18;99095.88;104910;1274;75341;-73
2022/07/15 10:44:34;;;;;;;3.30;1.40;;;;;;;23.02;58.78;99101.52;104881;1274;70195;-73
2022/07/15 10:47:14;;;;;;;2.30;1.20;;;;;;;22.91;60.41;99102.74;104876;1274;73266;-73
2022/07/15 10:49:45;;;;;;;1.50;0.90;;;;;;;22.93;58.33;99106.17;104854;1274;61322;-73
2022/07/15 10:52:14;;;;;;;2.00;1.00;;;;;;;22.98;56.39;99104.84;104936;1274;61306;-73
2022/07/15 10:54:46;;;;;;;1.30;0.70;;;;;;;23.28;54.65;99103.13;104980;1274;75346;-74
2022/07/15 10:57:15;;;;;;;1.70;0.60;;;;;;;23.67;54.47;99098.58;104821;1274;68821;-74
2022/07/15 10:59:56;;;;;;;1.50;0.90;;;;;;;23.98;53.32;99096.98;104954;1274;73582;-74
2022/07/15 11:02:24;;;;;;;1.30;0.80;;;;;;;24.00;51.91;99100.96;104904;1274;61862;-74
2022/07/15 11:05:20;;;;;;;3.90;1.00;;;;;;;23.59;51.12;99108.86;104795;1274;62197;-73
2022/07/15 11:07:46;;;;;;;1.60;0.90;;;;;;;23.32;50.99;99110.52;104823;1274;76424;-73
2022/07/15 11:10:14;;;;;;;2.40;0.90;;;;;;;23.31;51.04;99106.58;104933;1274;69509;-73
2022/07/15 11:12:49;;;;;;;1.90;0.70;;;;;;;23.48;51.59;99108.04;104945;1274;73162;-73
2022/07/15 11:15:18;;;;;;;2.70;0.90;;;;;;;23.45;49.33;99112.56;105174;1271;61388;-74
2022/07/15 11:17:47;;;;;;;2.20;0.80;;;;;;;23.14;49.57;99111.84;105246;1271;61806;-73
2022/07/15 11:20:17;;;;;;;1.40;0.50;;;;;;;22.92;48.81;99108.45;105298;1271;75685;-73
2022/07/15 11:22:50;;;;;;;1.00;0.60;;;;;;;22.92;48.34;99106.15;105236;1271;70435;-73